00:57
Airports
History
Links
Donate
Help keep this website running!
PayPal
Bitcoin
This page is community maintained. The information is intended for PC simulator navigation or reference.
Always use approved charts for navigation.
SBEG
Eduardo Gomes
Eduardo Gomes (SBEG)
Manaus, Amazonas, Brazil (69049)
(C)
Lat/Lng:3° 2' 19" S / 60° 2' 59" W
-3.038611 / -60.049723
Elevation:264'ft / 80mMSL
ID / ICAO:SBEG
Runways:1
Longest:10-28
Asphalt 2,704m / 8,870ft
Controlled:Yes
METAR01:00 GMT 2017-09-22
Altimeter: 29.83
Visibility: 6.2 statute miles
Wind: 0 knots (from 000°)
Temp: 26°c / 79°f
Humidity: 88.8%

METAR: SBEG 220100Z 00000KT CAVOK 26/24 Q1010

(Powered by phpweather)
Airport Radio Frequencies
ATIS: 127.65
Ground: 121.9
Tower: 118.3
Approach: 119.1, 119.7, 120.4, 122.8
Runway 10 / 28
Dimensions:2703.7 x 45.1m 8870' x 148'ft
Surface:Asphalt
Edge Lights:High intensity
Runway 10 [A]Runway 28 [B]
Heading:090°TH 270°TH
Lat:
Lng:
3° 2' 18.9"S
60° 3' 42.8"W
3° 2' 19.1"S
60° 2' 15.2"W
ALS:ALSF-I
TDZ:Yes, lighted
User Notes and Comments
3° 2' 19" S / 60° 2' 59" W
Distance To
Airport ID:
Nearby Airports
(U) Flores 3.1 NM
SWFN SE 140°
(C) PONTA PELADA 8.6 NM
SBMN ( WX ) SSE 149°
(C) Mountain Point 28.9 NM
SYMP E 84°
4 Fazenda Planura 47.1 NM
SIFN SE 144°
(C) Lumid Pau 61.3 NM
SYLP NE 43°
(C) Aishalton 63.7 NM
SYAH NE 52°
(C) Awaruwaunau 64.5 NM
SYAW ENE 65°
VFR Chart
Flight Planning at SkyVector.com